createdAt,value
2022-11-18T00:09:58.008Z,98845.69
2022-11-18T00:20:02.455Z,98850.94
2022-11-18T00:30:06.152Z,98869.81
2022-11-18T00:40:12.022Z,98866.44
2022-11-18T00:50:15.302Z,98864.84
2022-11-18T01:00:20.210Z,98881.06
2022-11-18T01:10:23.212Z,98883.38
2022-11-18T01:20:27.674Z,98902.63
2022-11-18T01:30:30.722Z,98907.19
2022-11-18T01:40:36.299Z,98914.44
2022-11-18T01:50:42.962Z,98925.63
2022-11-18T02:00:47.294Z,98921.56
2022-11-18T02:10:50.280Z,98920.72
2022-11-18T02:20:58.943Z,98929.78
2022-11-18T02:31:08.629Z,98956.53
2022-11-18T02:41:17.383Z,98969.78
2022-11-18T02:51:26.317Z,98967.34
2022-11-18T03:01:32.792Z,98969.25
2022-11-18T03:11:45.551Z,98975.22
2022-11-18T03:21:56.413Z,98988.09
2022-11-18T03:32:06.999Z,98996.50
2022-11-18T03:42:16.718Z,99003.63
2022-11-18T03:52:25.442Z,99015.06
2022-11-18T04:02:31.087Z,99027.78
2022-11-18T04:12:40.539Z,99047.44
2022-11-18T04:22:43.728Z,99048.38
2022-11-18T04:32:48.364Z,99060.41
2022-11-18T04:42:51.170Z,99067.44
2022-11-18T04:52:55.292Z,99096.31
2022-11-18T05:02:58.169Z,99091.53
2022-11-18T05:13:02.515Z,99101.34
2022-11-18T05:23:05.203Z,99113.72
2022-11-18T05:33:09.418Z,99118.91
2022-11-18T05:43:12.791Z,99124.91
2022-11-18T05:53:18.333Z,99148.75
2022-11-18T06:03:30.547Z,99147.22
2022-11-18T06:13:39.902Z,99161.19
2022-11-18T06:23:44.595Z,99167.63
2022-11-18T06:33:48.921Z,99183.66
2022-11-18T06:43:51.918Z,99189.31
2022-11-18T06:53:56.458Z,99211.16
2022-11-18T07:04:00.921Z,99226.59
2022-11-18T07:14:05.102Z,99234.44
2022-11-18T07:24:09.734Z,99250.03
2022-11-18T07:34:14.650Z,99273.41
2022-11-18T07:44:18.442Z,99287.03
2022-11-18T07:54:22.685Z,99299.63
2022-11-18T08:04:25.546Z,99300.31
2022-11-18T08:14:30.436Z,99320.50
2022-11-18T08:24:33.401Z,99325.78
2022-11-18T08:34:39.276Z,99340.13
2022-11-18T08:44:42.373Z,99350.22
2022-11-18T08:54:46.705Z,99359.63
2022-11-18T09:04:50.609Z,99366.16
2022-11-18T09:25:18.020Z,99379.53
2022-11-18T09:35:23.994Z,99389.75
2022-11-18T09:45:34.385Z,99410.13
2022-11-18T09:55:41.185Z,99424.09
2022-11-18T10:05:49.578Z,99431.94
2022-11-18T10:16:05.088Z,99450.31
2022-11-18T10:26:08.166Z,99444.81
2022-11-18T10:36:28.232Z,99450.25
2022-11-18T10:46:33.250Z,99453.69
2022-11-18T11:01:48.002Z,99459.28
2022-11-18T11:07:26.163Z,99455.41
2022-11-18T11:17:35.292Z,99459.72
2022-11-18T11:38:19.517Z,99468.56
2022-11-18T11:48:32.937Z,99477.84
2022-11-18T11:58:58.314Z,99472.84
2022-11-18T12:09:09.364Z,99474.44
2022-11-18T12:19:16.841Z,99479.50
2022-11-18T12:29:24.839Z,99488.69
2022-11-18T12:39:51.621Z,99493.63
2022-11-18T12:50:15.087Z,99494.47
2022-11-18T13:00:28.612Z,99498.00
2022-11-18T13:10:35.829Z,99498.53
2022-11-18T13:20:41.064Z,99501.28
2022-11-18T13:30:53.467Z,99509.81
2022-11-18T13:41:07.771Z,99507.00
2022-11-18T13:51:13.666Z,99504.56
2022-11-18T14:01:20.786Z,99508.44
2022-11-18T14:11:38.648Z,99531.16
2022-11-18T14:21:41.697Z,99537.22
2022-11-18T14:32:33.114Z,99544.19
2022-11-18T14:43:32.002Z,99549.81
2022-11-18T14:55:16.781Z,99558.88
2022-11-18T15:06:29.062Z,99551.81
2022-11-18T15:17:55.736Z,99568.53
2022-11-18T15:28:49.840Z,99577.31
2022-11-18T15:51:11.956Z,99585.00
2022-11-18T16:02:15.224Z,99598.06
2022-11-18T16:25:20.111Z,99610.34
2022-11-18T16:36:31.378Z,99612.91
2022-11-18T16:46:46.585Z,99618.22
2022-11-18T16:56:50.624Z,99640.69
2022-11-18T17:06:55.398Z,99637.84
2022-11-18T17:17:01.528Z,99642.28
2022-11-18T17:27:06.179Z,99649.34
2022-11-18T17:37:09.368Z,99667.47
2022-11-18T17:47:13.841Z,99675.81
2022-11-18T17:57:16.882Z,99681.91
2022-11-18T18:07:21.382Z,99688.59
2022-11-18T18:17:24.468Z,99690.19
2022-11-18T18:27:28.847Z,99706.81
2022-11-18T18:37:31.931Z,99708.88
2022-11-18T18:47:36.586Z,99716.72
2022-11-18T18:57:39.631Z,99718.53
2022-11-18T19:07:44.366Z,99722.09
2022-11-18T19:17:47.949Z,99724.22
2022-11-18T19:27:52.231Z,99728.91
2022-11-18T19:37:55.266Z,99736.19
2022-11-18T19:48:02.173Z,99746.31
2022-11-18T19:58:05.260Z,99747.34
2022-11-18T20:08:09.520Z,99752.31
2022-11-18T20:18:12.834Z,99775.06
2022-11-18T20:28:17.245Z,99777.44
2022-11-18T20:38:20.218Z,99778.94
2022-11-18T20:48:24.771Z,99785.78
2022-11-18T20:58:27.856Z,99781.34
2022-11-18T21:08:32.188Z,99783.59
2022-11-18T21:18:35.242Z,99794.63
2022-11-18T21:28:39.478Z,99796.78
2022-11-18T21:38:42.660Z,99818.38
2022-11-18T21:48:47.239Z,99813.22
2022-11-18T21:58:50.772Z,99820.66
2022-11-18T22:08:55.304Z,99824.44
2022-11-18T22:19:03.632Z,99817.28
2022-11-18T22:29:11.205Z,99825.63
2022-11-18T22:39:14.206Z,99821.69
2022-11-18T22:49:18.901Z,99823.06
2022-11-18T22:59:22.460Z,99821.84
2022-11-18T23:09:27.152Z,99818.41
2022-11-18T23:19:30.106Z,99828.53
2022-11-18T23:29:34.520Z,99830.28
2022-11-18T23:39:37.590Z,99828.22
2022-11-18T23:49:41.845Z,99823.16
2022-11-18T23:59:44.919Z,99831.88
